createdAt,value
2022-10-05T00:00:45.492Z,7.88
2022-10-05T00:03:14.727Z,8.40
2022-10-05T00:05:42.572Z,7.72
2022-10-05T00:08:15.201Z,7.32
2022-10-05T00:10:43.827Z,7.57
2022-10-05T00:13:16.241Z,7.18
2022-10-05T00:15:44.744Z,7.32
2022-10-05T00:18:16.982Z,7.15
2022-10-05T00:20:45.944Z,8.10
2022-10-05T00:23:19.544Z,7.50
2022-10-05T00:28:23.729Z,7.47
2022-10-05T00:30:51.567Z,7.15
2022-10-05T00:33:22.753Z,8.10
2022-10-05T00:35:51.141Z,6.63
2022-10-05T00:38:19.236Z,7.72
2022-10-05T00:41:01.241Z,6.95
2022-10-05T00:43:47.785Z,7.15
2022-10-05T00:46:22.068Z,6.88
2022-10-05T00:49:00.799Z,6.70
2022-10-05T00:51:31.127Z,5.70
2022-10-05T00:54:18.397Z,5.90
2022-10-05T00:57:10.574Z,5.80
2022-10-05T00:59:50.129Z,6.28
2022-10-05T01:02:26.225Z,5.68
2022-10-05T01:05:02.504Z,6.22
2022-10-05T01:07:39.619Z,5.03
2022-10-05T01:10:15.897Z,5.13
2022-10-05T01:12:53.620Z,4.88
2022-10-05T01:15:29.519Z,5.00
2022-10-05T01:18:04.979Z,4.82
2022-10-05T01:20:44.770Z,4.97
2022-10-05T01:23:38.665Z,5.35
2022-10-05T01:26:27.398Z,4.93
2022-10-05T01:29:05.748Z,4.55
2022-10-05T01:31:43.326Z,3.90
2022-10-05T01:34:23.165Z,4.55
2022-10-05T01:37:01.406Z,4.03
2022-10-05T01:39:36.578Z,4.57
2022-10-05T01:42:12.519Z,4.47
2022-10-05T01:44:52.245Z,4.97
2022-10-05T01:47:27.649Z,4.38
2022-10-05T01:50:01.526Z,4.78
2022-10-05T01:52:39.493Z,4.82
2022-10-05T01:55:18.894Z,5.75
2022-10-05T01:58:01.801Z,5.18
2022-10-05T02:00:36.259Z,6.10
2022-10-05T02:03:09.409Z,5.60
2022-10-05T02:05:42.235Z,5.30
2022-10-05T02:08:16.609Z,5.70
2022-10-05T02:10:50.777Z,5.60
2022-10-05T02:13:26.416Z,4.95
2022-10-05T02:15:59.694Z,6.13
2022-10-05T02:18:31.673Z,5.55
2022-10-05T02:21:05.722Z,5.40
2022-10-05T02:23:37.397Z,5.65
2022-10-05T02:26:08.707Z,5.70
2022-10-05T02:28:43.657Z,5.57
2022-10-05T02:31:16.614Z,6.07
2022-10-05T02:33:44.606Z,5.38
2022-10-05T02:36:20.843Z,6.00
2022-10-05T02:39:02.548Z,6.32
2022-10-05T02:41:45.102Z,5.10
2022-10-05T02:44:25.190Z,5.60
2022-10-05T02:47:05.730Z,5.90
2022-10-05T02:49:43.353Z,5.20
2022-10-05T02:52:19.028Z,6.53
2022-10-05T02:54:55.100Z,5.22
2022-10-05T02:57:30.021Z,5.78
2022-10-05T03:00:05.080Z,5.18
2022-10-05T03:02:41.545Z,5.07
2022-10-05T03:05:19.883Z,5.03
2022-10-05T03:07:56.653Z,5.07
2022-10-05T03:10:30.859Z,5.43
2022-10-05T03:13:03.418Z,4.85
2022-10-05T03:15:50.957Z,4.57
2022-10-05T03:18:32.781Z,4.75
2022-10-05T03:21:14.064Z,4.95
2022-10-05T03:23:54.244Z,4.47
2022-10-05T03:26:36.807Z,4.70
2022-10-05T03:29:17.034Z,5.05
2022-10-05T03:31:49.842Z,5.15
2022-10-05T03:34:27.541Z,4.38
2022-10-05T03:37:00.520Z,4.03
2022-10-05T03:39:37.179Z,4.18
2022-10-05T03:42:16.175Z,4.38
2022-10-05T03:44:53.679Z,4.18
2022-10-05T03:47:33.839Z,4.28
2022-10-05T03:50:23.569Z,4.35
2022-10-05T03:52:57.125Z,4.05
2022-10-05T03:55:32.046Z,4.05
2022-10-05T03:58:06.685Z,3.90
2022-10-05T04:00:37.006Z,4.32
2022-10-05T04:03:10.741Z,3.65
2022-10-05T04:05:47.222Z,3.85
2022-10-05T04:08:22.694Z,3.50
2022-10-05T04:10:53.578Z,3.58
2022-10-05T04:13:31.904Z,3.50
2022-10-05T04:16:07.821Z,4.25
2022-10-05T04:18:39.444Z,3.80
2022-10-05T04:21:14.657Z,4.28
2022-10-05T04:23:51.286Z,4.22
2022-10-05T04:26:23.449Z,4.60
2022-10-05T04:28:57.181Z,4.72
2022-10-05T04:31:49.760Z,4.93
2022-10-05T04:34:33.637Z,4.93
2022-10-05T04:37:09.530Z,4.82
2022-10-05T04:39:46.597Z,5.07
2022-10-05T04:42:25.393Z,4.70
2022-10-05T04:45:06.345Z,4.90
2022-10-05T04:50:28.066Z,6.05
2022-10-05T04:53:19.768Z,5.25
2022-10-05T04:55:55.054Z,6.18
2022-10-05T04:58:41.447Z,4.78
2022-10-05T05:01:31.417Z,4.63
2022-10-05T05:04:20.253Z,5.15
2022-10-05T05:06:59.377Z,4.95
2022-10-05T05:10:01.025Z,5.53
2022-10-05T05:12:36.882Z,6.45
2022-10-05T05:15:22.470Z,5.88
2022-10-05T05:18:07.634Z,6.32
2022-10-05T05:20:49.818Z,6.85
2022-10-05T05:23:26.365Z,7.00
2022-10-05T05:26:06.966Z,8.35
2022-10-05T05:28:46.067Z,7.68
2022-10-05T05:31:22.651Z,7.68
2022-10-05T05:33:59.781Z,8.25
2022-10-05T05:36:46.567Z,8.15
2022-10-05T05:39:24.840Z,7.72
2022-10-05T05:42:04.425Z,7.45
2022-10-05T05:44:38.978Z,7.30
2022-10-05T05:47:19.096Z,7.35
2022-10-05T05:50:06.389Z,7.20
2022-10-05T05:52:42.123Z,7.10
2022-10-05T05:55:18.234Z,6.78
2022-10-05T05:57:53.864Z,6.15
2022-10-05T06:00:25.025Z,6.72
2022-10-05T06:03:04.864Z,6.63
2022-10-05T06:05:39.506Z,6.80
2022-10-05T06:08:16.816Z,5.80
2022-10-05T06:10:52.136Z,6.97
2022-10-05T06:13:29.860Z,6.20
2022-10-05T06:16:05.267Z,5.97
2022-10-05T06:18:34.366Z,7.20
2022-10-05T06:21:08.782Z,6.38
2022-10-05T06:23:41.948Z,7.00
2022-10-05T06:26:20.009Z,6.60
2022-10-05T06:28:56.854Z,6.50
2022-10-05T06:31:37.472Z,6.20
2022-10-05T06:34:20.669Z,5.88
2022-10-05T06:36:52.409Z,6.27
2022-10-05T06:39:46.479Z,6.63
2022-10-05T06:42:31.094Z,5.88
2022-10-05T06:45:27.806Z,6.45
2022-10-05T06:48:13.795Z,6.20
2022-10-05T06:51:03.858Z,5.90
2022-10-05T06:53:56.704Z,5.60
2022-10-05T06:56:30.823Z,7.10
2022-10-05T06:59:07.464Z,6.68
2022-10-05T07:01:49.164Z,6.38
2022-10-05T07:04:36.637Z,5.65
2022-10-05T07:07:13.150Z,6.00
2022-10-05T07:09:54.749Z,5.95
2022-10-05T07:12:36.073Z,5.53
2022-10-05T07:15:20.414Z,5.55
2022-10-05T07:18:03.788Z,5.72
2022-10-05T07:20:36.387Z,5.28
2022-10-05T07:23:17.800Z,5.00
2022-10-05T07:25:52.925Z,5.47
2022-10-05T07:28:32.779Z,5.25
2022-10-05T07:31:08.232Z,4.75
2022-10-05T07:33:45.445Z,5.50
2022-10-05T07:36:39.846Z,4.80
2022-10-05T07:39:14.418Z,4.80
2022-10-05T07:41:47.829Z,4.82
2022-10-05T07:44:23.434Z,4.82
2022-10-05T07:46:56.769Z,3.95
2022-10-05T07:49:37.740Z,4.15
2022-10-05T07:52:12.279Z,4.05
2022-10-05T07:54:50.145Z,4.32
2022-10-05T07:57:24.158Z,4.28
2022-10-05T07:59:59.212Z,4.63
2022-10-05T08:02:32.863Z,4.18
2022-10-05T08:05:06.358Z,3.65
2022-10-05T08:07:36.849Z,3.60
2022-10-05T08:10:19.184Z,3.08
2022-10-05T08:13:01.271Z,3.30
2022-10-05T08:15:34.398Z,3.13
2022-10-05T08:18:06.113Z,2.65
2022-10-05T08:20:43.253Z,2.95
2022-10-05T08:23:21.021Z,2.40
2022-10-05T08:26:08.756Z,2.60
2022-10-05T08:28:40.427Z,2.60
2022-10-05T08:31:18.982Z,2.05
2022-10-05T08:33:55.658Z,2.10
2022-10-05T08:36:34.811Z,1.60
2022-10-05T08:39:07.748Z,2.03
2022-10-05T08:42:03.655Z,1.48
2022-10-05T08:45:09.124Z,1.70
2022-10-05T08:48:05.827Z,1.75
2022-10-05T08:51:04.071Z,1.65
2022-10-05T08:53:53.113Z,1.98
2022-10-05T08:56:41.777Z,2.17
2022-10-05T08:59:44.269Z,2.15
2022-10-05T09:02:24.393Z,2.63
2022-10-05T09:05:12.480Z,2.38
2022-10-05T09:08:02.814Z,2.20
2022-10-05T09:10:59.308Z,2.30
2022-10-05T09:13:40.625Z,2.28
2022-10-05T09:16:23.738Z,2.70
2022-10-05T09:19:22.752Z,2.95
2022-10-05T09:21:58.598Z,3.00
2022-10-05T09:24:48.453Z,2.85
2022-10-05T09:27:20.282Z,2.90
2022-10-05T09:30:18.091Z,3.15
2022-10-05T09:33:30.640Z,2.83
2022-10-05T09:36:25.968Z,3.08
2022-10-05T09:39:17.353Z,3.13
2022-10-05T09:42:20.576Z,3.47
2022-10-05T09:45:23.989Z,2.75
2022-10-05T09:48:21.960Z,2.93
2022-10-05T09:51:05.176Z,3.30
2022-10-05T09:54:02.699Z,3.45
2022-10-05T09:57:04.522Z,3.22
2022-10-05T10:00:13.473Z,3.47
2022-10-05T10:03:10.918Z,3.05
2022-10-05T10:06:11.229Z,2.92
2022-10-05T10:08:52.825Z,2.92
2022-10-05T10:11:41.529Z,3.00
2022-10-05T10:14:48.274Z,3.25
2022-10-05T10:17:43.713Z,2.92
2022-10-05T10:20:26.968Z,3.00
2022-10-05T10:23:08.913Z,2.88
2022-10-05T10:26:18.279Z,2.78
2022-10-05T10:29:06.011Z,2.58
2022-10-05T10:31:58.732Z,2.65
2022-10-05T10:35:09.209Z,2.97
2022-10-05T10:38:09.918Z,2.50
2022-10-05T10:40:55.223Z,2.90
2022-10-05T10:43:43.790Z,2.80
2022-10-05T10:46:26.458Z,2.65
2022-10-05T10:49:02.313Z,2.58
2022-10-05T10:52:03.531Z,2.50
2022-10-05T10:55:09.060Z,2.47
2022-10-05T10:57:53.318Z,2.70
2022-10-05T11:00:33.538Z,3.00
2022-10-05T11:03:41.005Z,2.83
2022-10-05T11:06:29.261Z,2.80
2022-10-05T11:09:22.266Z,2.60
2022-10-05T11:12:49.736Z,3.55
2022-10-05T11:15:45.152Z,2.97
2022-10-05T11:18:21.488Z,3.33
2022-10-05T11:21:18.409Z,2.45
2022-10-05T11:24:23.429Z,3.38
2022-10-05T11:27:13.872Z,3.30
2022-10-05T11:30:03.116Z,2.95
2022-10-05T11:33:15.956Z,3.30
2022-10-05T11:35:59.485Z,3.10
2022-10-05T11:38:49.766Z,2.85
2022-10-05T11:41:38.392Z,3.50
2022-10-05T11:44:53.002Z,3.08
2022-10-05T11:50:05.630Z,3.00
2022-10-05T11:52:41.212Z,2.78
2022-10-05T11:55:34.200Z,2.88
2022-10-05T11:58:08.569Z,2.90
2022-10-05T12:00:43.657Z,2.70
2022-10-05T12:03:23.537Z,2.97
2022-10-05T12:06:04.728Z,2.95
2022-10-05T12:08:42.078Z,2.83
2022-10-05T12:11:31.173Z,2.90
2022-10-05T12:14:06.484Z,2.90
2022-10-05T12:16:39.091Z,3.10
2022-10-05T12:19:17.626Z,2.53
2022-10-05T12:21:51.279Z,2.78
2022-10-05T12:24:27.970Z,2.53
2022-10-05T12:27:03.071Z,2.47
2022-10-05T12:29:39.446Z,2.72
2022-10-05T12:32:14.503Z,2.88
2022-10-05T12:34:50.854Z,2.40
2022-10-05T12:37:40.229Z,2.28
2022-10-05T12:40:20.724Z,2.97
2022-10-05T12:42:57.670Z,3.33
2022-10-05T12:45:34.878Z,2.97
2022-10-05T12:48:25.184Z,2.65
2022-10-05T12:50:59.250Z,3.03
2022-10-05T12:53:42.480Z,3.33
2022-10-05T12:56:17.932Z,3.05
2022-10-05T12:58:55.370Z,2.72
2022-10-05T13:01:34.044Z,2.95
2022-10-05T13:04:19.032Z,2.90
2022-10-05T13:07:05.706Z,3.03
2022-10-05T13:09:40.344Z,3.25
2022-10-05T13:12:17.987Z,2.70
2022-10-05T13:14:58.110Z,3.42
2022-10-05T13:17:36.907Z,4.32
2022-10-05T13:20:12.272Z,2.88
2022-10-05T13:22:44.690Z,3.22
2022-10-05T13:25:26.646Z,2.55
2022-10-05T13:28:12.796Z,3.10
2022-10-05T13:30:46.241Z,3.22
2022-10-05T13:33:21.384Z,3.08
2022-10-05T13:35:57.468Z,3.13
2022-10-05T13:38:42.688Z,3.10
2022-10-05T13:41:21.704Z,3.03
2022-10-05T13:44:00.244Z,3.20
2022-10-05T13:46:36.905Z,3.75
2022-10-05T13:49:19.069Z,3.15
2022-10-05T13:51:57.159Z,3.70
2022-10-05T13:54:37.295Z,3.30
2022-10-05T13:57:17.140Z,3.20
2022-10-05T13:59:50.610Z,3.42
2022-10-05T14:04:50.928Z,3.10
2022-10-05T14:07:26.355Z,3.38
2022-10-05T14:09:55.702Z,3.22
2022-10-05T14:12:24.493Z,3.10
2022-10-05T14:14:54.109Z,3.33
2022-10-05T14:17:40.079Z,3.20
2022-10-05T14:20:25.247Z,3.38
2022-10-05T14:23:00.669Z,2.42
2022-10-05T14:25:31.343Z,3.10
2022-10-05T14:28:03.645Z,2.75
2022-10-05T14:30:33.922Z,2.95
2022-10-05T14:33:16.603Z,2.50
2022-10-05T14:35:53.045Z,2.70
2022-10-05T14:38:23.578Z,2.95
2022-10-05T14:41:07.017Z,2.80
2022-10-05T14:43:36.135Z,3.30
2022-10-05T14:46:27.208Z,3.08
2022-10-05T14:49:13.692Z,3.35
2022-10-05T14:51:42.825Z,3.20
2022-10-05T14:54:30.550Z,3.33
2022-10-05T14:57:09.989Z,2.78
2022-10-05T15:00:11.421Z,3.03
2022-10-05T15:03:00.786Z,3.45
2022-10-05T15:05:34.885Z,3.75
2022-10-05T15:08:15.821Z,3.55
2022-10-05T15:10:51.204Z,3.13
2022-10-05T15:13:23.465Z,2.95
2022-10-05T15:15:55.187Z,3.40
2022-10-05T15:18:32.187Z,2.95
2022-10-05T15:21:26.395Z,3.13
2022-10-05T15:23:57.506Z,3.20
2022-10-05T15:26:43.734Z,3.03
2022-10-05T15:29:38.273Z,3.00
2022-10-05T15:32:20.242Z,2.88
2022-10-05T15:35:00.062Z,3.10
2022-10-05T15:37:35.065Z,3.28
2022-10-05T15:40:07.726Z,3.80
2022-10-05T15:42:38.302Z,3.17
2022-10-05T15:45:20.658Z,3.95
2022-10-05T15:47:54.297Z,3.50
2022-10-05T15:50:27.263Z,3.70
2022-10-05T15:53:02.474Z,3.28
2022-10-05T15:55:51.190Z,3.50
2022-10-05T15:58:42.514Z,2.90
2022-10-05T16:01:17.105Z,2.63
2022-10-05T16:03:51.023Z,2.85
2022-10-05T16:06:49.022Z,2.85
2022-10-05T16:09:43.245Z,1.60
2022-10-05T16:14:56.396Z,2.03
2022-10-05T16:17:40.909Z,1.65
2022-10-05T16:20:26.276Z,1.55
2022-10-05T16:23:03.879Z,1.52
2022-10-05T16:25:44.129Z,2.00
2022-10-05T16:28:23.376Z,1.80
2022-10-05T16:31:00.819Z,1.58
2022-10-05T16:33:44.504Z,1.55
2022-10-05T16:36:25.762Z,1.75
2022-10-05T16:38:59.275Z,2.03
2022-10-05T16:44:11.517Z,2.00
2022-10-05T16:46:49.255Z,1.83
2022-10-05T16:49:33.928Z,2.00
2022-10-05T16:52:06.740Z,1.92
2022-10-05T16:54:46.825Z,2.10
2022-10-05T16:57:21.902Z,2.33
2022-10-05T17:00:04.823Z,2.80
2022-10-05T17:02:47.057Z,2.00
2022-10-05T17:05:33.441Z,2.55
2022-10-05T17:08:21.553Z,2.00
2022-10-05T17:11:04.278Z,2.38
2022-10-05T17:13:49.883Z,1.80
2022-10-05T17:16:27.397Z,2.38
2022-10-05T17:19:22.493Z,2.40
2022-10-05T17:22:00.448Z,2.40
2022-10-05T17:24:49.114Z,1.92
2022-10-05T17:27:22.158Z,2.28
2022-10-05T17:29:53.076Z,2.40
2022-10-05T17:32:36.122Z,2.55
2022-10-05T17:35:18.404Z,2.33
2022-10-05T17:38:17.237Z,2.08
2022-10-05T17:41:12.273Z,2.75
2022-10-05T17:43:40.823Z,2.42
2022-10-05T17:46:10.590Z,2.30
2022-10-05T17:49:20.185Z,2.00
2022-10-05T17:52:17.680Z,2.33
2022-10-05T17:55:26.729Z,2.33
2022-10-05T17:57:59.785Z,2.42
2022-10-05T18:00:42.106Z,2.35
2022-10-05T18:03:42.856Z,2.40
2022-10-05T18:06:37.398Z,2.30
2022-10-05T18:09:41.979Z,2.20
2022-10-05T18:12:28.810Z,2.15
2022-10-05T18:15:02.065Z,1.83
2022-10-05T18:17:53.006Z,2.08
2022-10-05T18:20:33.006Z,2.45
2022-10-05T18:23:30.029Z,1.73
2022-10-05T18:26:06.243Z,2.20
2022-10-05T18:28:48.366Z,2.47
2022-10-05T18:31:32.692Z,2.60
2022-10-05T18:34:14.456Z,2.00
2022-10-05T18:36:59.285Z,1.98
2022-10-05T18:39:46.404Z,2.25
2022-10-05T18:42:25.262Z,2.20
2022-10-05T18:44:57.062Z,2.50
2022-10-05T18:47:34.771Z,2.08
2022-10-05T18:50:27.830Z,2.20
2022-10-05T18:53:10.395Z,2.65
2022-10-05T18:55:43.563Z,2.78
2022-10-05T18:58:17.678Z,1.85
2022-10-05T19:01:31.727Z,2.38
2022-10-05T19:04:22.236Z,2.72
2022-10-05T19:06:58.428Z,2.25
2022-10-05T19:09:44.950Z,2.45
2022-10-05T19:12:23.551Z,2.80
2022-10-05T19:15:01.764Z,2.25
2022-10-05T19:18:05.615Z,2.42
2022-10-05T19:20:39.990Z,2.70
2022-10-05T19:23:19.658Z,2.50
2022-10-05T19:25:53.094Z,2.53
2022-10-05T19:28:29.617Z,2.95
2022-10-05T19:31:17.447Z,3.10
2022-10-05T19:33:57.715Z,3.20
2022-10-05T19:36:36.488Z,2.78
2022-10-05T19:39:11.018Z,3.13
2022-10-05T19:41:54.131Z,3.25
2022-10-05T19:44:34.260Z,2.90
2022-10-05T19:47:06.718Z,2.88
2022-10-05T19:49:50.316Z,2.67
2022-10-05T19:52:26.454Z,2.90
2022-10-05T19:55:05.300Z,2.67
2022-10-05T19:57:33.390Z,2.20
2022-10-05T20:00:01.804Z,1.70
2022-10-05T20:02:33.296Z,1.63
2022-10-05T20:05:07.990Z,2.05
2022-10-05T20:07:38.744Z,1.65
2022-10-05T20:10:26.737Z,1.40
2022-10-05T20:12:57.632Z,0.80
2022-10-05T20:15:45.686Z,1.15
2022-10-05T20:18:58.932Z,1.20
2022-10-05T20:21:40.589Z,1.10
2022-10-05T20:24:11.813Z,1.30
2022-10-05T20:26:59.144Z,1.20
2022-10-05T20:29:27.661Z,0.90
2022-10-05T20:31:56.041Z,0.93
2022-10-05T20:34:24.207Z,1.30
2022-10-05T20:36:53.491Z,0.75
2022-10-05T20:39:23.100Z,1.13
2022-10-05T20:41:52.711Z,1.05
2022-10-05T20:44:20.784Z,0.88
2022-10-05T20:46:48.966Z,0.70
2022-10-05T20:49:16.960Z,1.02
2022-10-05T20:51:45.664Z,0.80
2022-10-05T20:54:13.595Z,0.93
2022-10-05T20:56:43.043Z,0.77
2022-10-05T20:59:11.065Z,0.75
2022-10-05T21:01:39.437Z,0.88
2022-10-05T21:04:09.554Z,0.95
2022-10-05T21:06:37.443Z,0.90
2022-10-05T21:09:05.910Z,0.57
2022-10-05T21:11:34.035Z,0.80
2022-10-05T21:14:05.839Z,0.90
2022-10-05T21:16:38.306Z,1.02
2022-10-05T21:19:09.511Z,0.77
2022-10-05T21:21:38.124Z,0.85
2022-10-05T21:24:06.796Z,1.05
2022-10-05T21:26:37.006Z,1.85
2022-10-05T21:29:11.605Z,1.40
2022-10-05T21:31:40.767Z,1.30
2022-10-05T21:34:09.162Z,1.13
2022-10-05T21:36:37.342Z,1.13
2022-10-05T21:39:05.406Z,0.90
2022-10-05T21:41:33.454Z,1.10
2022-10-05T21:44:01.707Z,1.02
2022-10-05T21:46:31.672Z,0.80
2022-10-05T21:48:59.820Z,0.90
2022-10-05T21:51:28.381Z,1.08
2022-10-05T21:54:01.739Z,1.10
2022-10-05T21:56:36.940Z,0.75
2022-10-05T21:59:07.459Z,0.80
2022-10-05T22:01:36.872Z,0.93
2022-10-05T22:04:05.676Z,1.10
2022-10-05T22:06:34.981Z,0.70
2022-10-05T22:09:04.053Z,1.05
2022-10-05T22:11:31.961Z,1.00
2022-10-05T22:14:02.759Z,0.68
2022-10-05T22:16:32.981Z,0.98
2022-10-05T22:19:06.053Z,1.00
2022-10-05T22:21:37.886Z,1.33
2022-10-05T22:24:06.585Z,1.00
2022-10-05T22:26:35.925Z,1.00
2022-10-05T22:29:04.519Z,1.70
2022-10-05T22:31:32.941Z,1.58
2022-10-05T22:34:01.222Z,2.00
2022-10-05T22:36:30.466Z,1.52
2022-10-05T22:38:58.569Z,1.40
2022-10-05T22:41:26.596Z,1.50
2022-10-05T22:43:54.424Z,1.80
2022-10-05T22:46:22.467Z,1.20
2022-10-05T22:48:50.464Z,1.35
2022-10-05T22:51:18.473Z,1.80
2022-10-05T22:53:47.785Z,1.50
2022-10-05T22:56:16.440Z,2.10
2022-10-05T22:58:45.611Z,2.03
2022-10-05T23:01:15.733Z,1.10
2022-10-05T23:03:43.980Z,1.15
2022-10-05T23:06:14.056Z,1.10
2022-10-05T23:08:42.994Z,1.27
2022-10-05T23:11:15.084Z,1.38
2022-10-05T23:13:43.329Z,1.67
2022-10-05T23:16:13.000Z,1.63
2022-10-05T23:18:41.553Z,1.63
2022-10-05T23:21:10.434Z,0.90
2022-10-05T23:23:39.871Z,1.70
2022-10-05T23:26:09.433Z,1.23
2022-10-05T23:28:40.518Z,0.90
2022-10-05T23:31:09.575Z,1.40
2022-10-05T23:33:37.463Z,0.90
2022-10-05T23:36:07.157Z,1.17
2022-10-05T23:38:35.378Z,1.60
2022-10-05T23:41:03.489Z,1.30
2022-10-05T23:43:33.321Z,1.52
2022-10-05T23:46:03.526Z,1.38
2022-10-05T23:48:31.957Z,1.60
2022-10-05T23:51:00.975Z,1.50
2022-10-05T23:53:28.921Z,1.85
2022-10-05T23:55:57.081Z,1.50
2022-10-05T23:58:25.138Z,1.70
